createdAt,value
2023-05-22T00:01:45.732Z,17.77
2023-05-22T00:04:12.312Z,17.74
2023-05-22T00:06:43.012Z,17.71
2023-05-22T00:09:09.541Z,17.68
2023-05-22T00:11:36.109Z,17.65
2023-05-22T00:14:02.644Z,17.64
2023-05-22T00:16:29.189Z,17.61
2023-05-22T00:18:55.843Z,17.58
2023-05-22T00:21:22.511Z,17.56
2023-05-22T00:23:49.000Z,17.53
2023-05-22T00:26:16.291Z,17.48
2023-05-22T00:28:43.261Z,17.40
2023-05-22T00:31:09.804Z,17.35
2023-05-22T00:33:36.427Z,17.31
2023-05-22T00:36:03.159Z,17.28
2023-05-22T00:38:31.535Z,17.25
2023-05-22T00:41:02.287Z,17.24
2023-05-22T00:43:28.837Z,17.22
2023-05-22T00:45:55.780Z,17.20
2023-05-22T00:48:23.057Z,17.19
2023-05-22T00:50:50.838Z,17.16
2023-05-22T00:53:20.684Z,17.15
2023-05-22T00:55:47.998Z,17.14
2023-05-22T00:58:18.388Z,17.14
2023-05-22T01:00:45.750Z,17.11
2023-05-22T01:03:12.814Z,17.07
2023-05-22T01:05:41.148Z,17.02
2023-05-22T01:08:08.512Z,16.99
2023-05-22T01:10:37.743Z,16.97
2023-05-22T01:13:29.662Z,16.93
2023-05-22T01:16:06.133Z,16.93
2023-05-22T01:18:46.220Z,16.93
2023-05-22T01:21:31.402Z,16.92
2023-05-22T01:24:13.396Z,16.90
2023-05-22T01:27:17.472Z,16.87
2023-05-22T01:29:57.076Z,16.83
2023-05-22T01:32:25.725Z,16.80
2023-05-22T01:34:55.468Z,16.79
2023-05-22T01:37:23.309Z,16.77
2023-05-22T01:39:51.896Z,16.75
2023-05-22T01:42:18.724Z,16.72
2023-05-22T01:44:45.546Z,16.69
2023-05-22T01:47:12.119Z,16.65
2023-05-22T01:49:38.900Z,16.63
2023-05-22T01:52:34.769Z,16.60
2023-05-22T01:55:09.426Z,16.58
2023-05-22T01:57:47.787Z,16.56
2023-05-22T02:00:16.586Z,16.52
2023-05-22T02:02:48.264Z,16.53
2023-05-22T02:05:18.161Z,16.53
2023-05-22T02:07:47.683Z,16.51
2023-05-22T02:10:16.611Z,16.48
2023-05-22T02:12:43.959Z,16.42
2023-05-22T02:15:11.081Z,16.38
2023-05-22T02:17:38.883Z,16.34
2023-05-22T02:20:07.141Z,16.31
2023-05-22T02:22:33.653Z,16.29
2023-05-22T02:25:00.219Z,16.26
2023-05-22T02:27:26.706Z,16.23
2023-05-22T02:29:53.210Z,16.21
2023-05-22T02:32:19.732Z,16.20
2023-05-22T02:34:46.249Z,16.16
2023-05-22T02:37:12.734Z,16.15
2023-05-22T02:39:39.266Z,16.12
2023-05-22T02:42:06.308Z,16.08
2023-05-22T02:44:32.845Z,16.05
2023-05-22T02:46:59.395Z,16.02
2023-05-22T02:49:25.943Z,15.99
2023-05-22T02:51:52.498Z,15.97
2023-05-22T02:54:19.181Z,15.95
2023-05-22T02:56:45.730Z,15.93
2023-05-22T02:59:12.287Z,15.90
2023-05-22T03:01:38.993Z,15.88
2023-05-22T03:04:05.911Z,15.87
2023-05-22T03:06:33.072Z,15.85
2023-05-22T03:08:59.615Z,15.85
2023-05-22T03:11:26.130Z,15.86
2023-05-22T03:13:52.617Z,15.87
2023-05-22T03:16:19.158Z,15.89
2023-05-22T03:18:45.751Z,15.91
2023-05-22T03:21:12.298Z,15.94
2023-05-22T03:23:38.816Z,15.94
2023-05-22T03:26:05.346Z,15.97
2023-05-22T03:28:31.863Z,15.99
2023-05-22T03:30:58.574Z,16.00
2023-05-22T03:33:25.135Z,16.01
2023-05-22T03:35:51.674Z,16.01
2023-05-22T03:38:18.155Z,16.02
2023-05-22T03:40:44.660Z,16.04
2023-05-22T03:43:11.186Z,16.06
2023-05-22T03:45:37.713Z,16.06
2023-05-22T03:48:04.373Z,16.09
2023-05-22T03:50:30.930Z,16.11
2023-05-22T03:52:57.444Z,16.12
2023-05-22T03:55:23.932Z,16.14
2023-05-22T03:57:50.487Z,16.19
2023-05-22T04:00:17.378Z,16.22
2023-05-22T04:02:43.993Z,16.25
2023-05-22T04:05:10.726Z,16.30
2023-05-22T04:07:37.315Z,16.34
2023-05-22T04:10:05.238Z,16.38
2023-05-22T04:12:31.847Z,16.43
2023-05-22T04:14:58.397Z,16.46
2023-05-22T04:17:31.057Z,16.49
2023-05-22T04:19:57.649Z,16.55
2023-05-22T04:22:24.448Z,16.59
2023-05-22T04:24:51.001Z,16.63
2023-05-22T04:27:17.563Z,16.68
2023-05-22T04:29:44.165Z,16.74
2023-05-22T04:32:10.942Z,16.79
2023-05-22T04:34:37.692Z,16.83
2023-05-22T04:37:05.337Z,16.88
2023-05-22T04:39:31.907Z,16.93
2023-05-22T04:41:58.486Z,16.97
2023-05-22T04:44:25.000Z,17.02
2023-05-22T04:46:51.591Z,17.06
2023-05-22T04:49:18.107Z,17.10
2023-05-22T04:51:44.689Z,17.14
2023-05-22T04:54:11.254Z,17.18
2023-05-22T04:56:37.755Z,17.23
2023-05-22T04:59:04.873Z,17.28
2023-05-22T05:01:33.205Z,17.32
2023-05-22T05:04:00.479Z,17.37
2023-05-22T05:06:27.203Z,17.40
2023-05-22T05:08:53.705Z,17.44
2023-05-22T05:11:20.354Z,17.48
2023-05-22T05:13:46.934Z,17.52
2023-05-22T05:16:13.503Z,17.58
2023-05-22T05:18:39.968Z,17.65
2023-05-22T05:21:06.472Z,17.73
2023-05-22T05:23:32.935Z,17.80
2023-05-22T05:25:59.444Z,17.87
2023-05-22T05:28:25.952Z,17.94
2023-05-22T05:30:52.492Z,18.00
2023-05-22T05:33:19.107Z,18.06
2023-05-22T05:35:45.661Z,18.14
2023-05-22T05:38:12.238Z,18.19
2023-05-22T05:40:38.936Z,18.25
2023-05-22T05:43:07.337Z,18.33
2023-05-22T05:45:35.633Z,18.41
2023-05-22T05:48:02.269Z,18.47
2023-05-22T05:50:28.936Z,18.51
2023-05-22T05:52:55.508Z,18.53
2023-05-22T05:55:22.272Z,18.52
2023-05-22T05:57:48.818Z,18.52
2023-05-22T06:00:15.525Z,18.51
2023-05-22T06:02:42.378Z,18.49
2023-05-22T06:05:09.339Z,18.49
2023-05-22T06:07:35.899Z,18.49
2023-05-22T06:10:02.467Z,18.52
2023-05-22T06:12:29.040Z,18.59
2023-05-22T06:14:55.530Z,18.68
2023-05-22T06:17:22.197Z,18.77
2023-05-22T06:19:48.770Z,18.79
2023-05-22T06:22:15.303Z,18.83
2023-05-22T06:24:41.870Z,18.89
2023-05-22T06:27:08.445Z,18.96
2023-05-22T06:29:34.969Z,19.05
2023-05-22T06:32:01.625Z,19.15
2023-05-22T06:34:28.247Z,19.26
2023-05-22T06:36:54.904Z,19.35
2023-05-22T06:39:21.617Z,19.47
2023-05-22T06:41:48.053Z,19.59
2023-05-22T06:44:14.581Z,19.71
2023-05-22T06:46:41.169Z,19.83
2023-05-22T06:49:07.738Z,19.93
2023-05-22T06:51:34.233Z,20.03
2023-05-22T06:54:00.875Z,20.09
2023-05-22T06:56:27.347Z,20.14
2023-05-22T06:58:53.922Z,20.18
2023-05-22T07:01:20.618Z,20.25
2023-05-22T07:03:47.169Z,20.33
2023-05-22T07:06:13.836Z,20.41
2023-05-22T07:08:40.377Z,20.44
2023-05-22T07:11:06.930Z,20.44
2023-05-22T07:13:33.687Z,20.40
2023-05-22T07:16:00.331Z,20.39
2023-05-22T07:18:26.958Z,20.37
2023-05-22T07:20:53.586Z,20.40
2023-05-22T07:23:20.156Z,20.44
2023-05-22T07:25:46.679Z,20.47
2023-05-22T07:28:13.202Z,20.46
2023-05-22T07:30:39.928Z,20.45
2023-05-22T07:33:06.843Z,20.44
2023-05-22T07:35:33.509Z,20.45
2023-05-22T07:38:00.035Z,20.44
2023-05-22T07:40:27.520Z,20.45
2023-05-22T07:42:54.131Z,20.48
2023-05-22T07:45:20.659Z,20.52
2023-05-22T07:47:47.452Z,20.55
2023-05-22T07:50:14.029Z,20.59
2023-05-22T07:52:40.524Z,20.63
2023-05-22T07:55:07.881Z,20.68
2023-05-22T07:57:34.451Z,20.78
2023-05-22T08:00:00.996Z,20.92
2023-05-22T08:02:27.621Z,21.03
2023-05-22T08:04:54.232Z,21.12
2023-05-22T08:07:20.786Z,21.18
2023-05-22T08:09:47.426Z,21.22
2023-05-22T08:12:13.946Z,21.30
2023-05-22T08:14:40.724Z,21.40
2023-05-22T08:17:07.209Z,21.53
2023-05-22T08:19:33.912Z,21.61
2023-05-22T08:22:00.529Z,21.68
2023-05-22T08:24:27.013Z,21.77
2023-05-22T08:26:53.617Z,21.83
2023-05-22T08:29:20.103Z,21.89
2023-05-22T08:31:46.709Z,21.99
2023-05-22T08:34:13.208Z,22.09
2023-05-22T08:36:39.715Z,22.16
2023-05-22T08:39:06.261Z,22.24
2023-05-22T08:41:32.883Z,22.37
2023-05-22T08:43:59.412Z,22.54
2023-05-22T08:46:26.099Z,22.69
2023-05-22T08:48:57.243Z,22.84
2023-05-22T08:51:28.370Z,22.92
2023-05-22T08:54:00.039Z,23.01
2023-05-22T08:56:28.660Z,23.10
2023-05-22T08:58:58.228Z,23.15
2023-05-22T09:01:25.091Z,23.23
2023-05-22T09:03:51.796Z,23.32
2023-05-22T09:06:18.488Z,23.47
2023-05-22T09:08:45.494Z,23.58
2023-05-22T09:11:12.023Z,23.70
2023-05-22T09:13:39.652Z,23.83
2023-05-22T09:16:11.259Z,23.96
2023-05-22T09:18:38.684Z,24.11
2023-05-22T09:21:11.325Z,24.23
2023-05-22T09:23:49.910Z,24.33
2023-05-22T09:26:16.452Z,24.42
2023-05-22T09:28:42.950Z,24.47
2023-05-22T09:31:09.575Z,24.49
2023-05-22T09:33:36.473Z,24.50
2023-05-22T09:36:03.088Z,24.54
2023-05-22T09:38:30.439Z,24.54
2023-05-22T09:40:57.416Z,24.56
2023-05-22T09:43:24.572Z,24.67
2023-05-22T09:45:57.265Z,24.75
2023-05-22T09:48:24.216Z,24.74
2023-05-22T09:50:53.689Z,24.75
2023-05-22T09:53:25.858Z,24.77
2023-05-22T09:55:54.086Z,24.85
2023-05-22T09:58:24.549Z,24.89
2023-05-22T10:00:51.143Z,24.93
2023-05-22T10:03:23.425Z,24.95
2023-05-22T10:05:55.149Z,24.96
2023-05-22T10:08:24.963Z,25.00
2023-05-22T10:10:52.467Z,25.10
2023-05-22T10:13:19.603Z,25.22
2023-05-22T10:15:47.971Z,25.33
2023-05-22T10:18:16.022Z,25.43
2023-05-22T10:20:42.800Z,25.50
2023-05-22T10:23:10.022Z,25.55
2023-05-22T10:25:39.853Z,25.54
2023-05-22T10:28:07.736Z,25.55
2023-05-22T10:30:40.782Z,25.51
2023-05-22T10:33:07.683Z,25.48
2023-05-22T10:35:44.402Z,25.47
2023-05-22T10:38:38.435Z,25.46
2023-05-22T10:41:05.388Z,25.43
2023-05-22T10:43:32.020Z,25.42
2023-05-22T10:46:07.176Z,25.48
2023-05-22T10:48:41.297Z,25.54
2023-05-22T10:51:08.105Z,25.57
2023-05-22T10:53:36.008Z,25.67
2023-05-22T10:56:13.890Z,25.89
2023-05-22T10:58:44.124Z,26.25
2023-05-22T11:01:11.718Z,26.70
2023-05-22T11:03:59.119Z,27.19
2023-05-22T11:06:40.945Z,27.70
2023-05-22T11:09:33.215Z,28.20
2023-05-22T11:12:18.218Z,28.52
2023-05-22T11:14:51.728Z,28.60
2023-05-22T11:17:22.033Z,28.55
2023-05-22T11:20:05.178Z,28.30
2023-05-22T11:22:41.230Z,27.97
2023-05-22T11:25:15.856Z,27.73
2023-05-22T11:27:42.548Z,27.50
2023-05-22T11:30:10.037Z,27.22
2023-05-22T11:32:41.299Z,26.99
2023-05-22T11:35:08.503Z,26.89
2023-05-22T11:37:39.401Z,26.85
2023-05-22T11:40:07.086Z,26.81
2023-05-22T11:42:33.709Z,26.80
2023-05-22T11:45:00.554Z,26.73
2023-05-22T11:47:28.216Z,26.68
2023-05-22T11:49:56.449Z,26.68
2023-05-22T11:52:23.302Z,26.70
2023-05-22T11:54:52.273Z,26.71
2023-05-22T11:57:19.359Z,26.73
2023-05-22T11:59:46.938Z,26.76
2023-05-22T12:02:13.820Z,26.83
2023-05-22T12:04:40.356Z,26.86
2023-05-22T12:07:07.905Z,26.88
2023-05-22T12:09:34.603Z,26.90
2023-05-22T12:12:01.440Z,26.85
2023-05-22T12:14:28.782Z,26.74
2023-05-22T12:16:57.969Z,26.72
2023-05-22T12:19:25.950Z,26.75
2023-05-22T12:21:53.641Z,26.77
2023-05-22T12:24:20.198Z,26.81
2023-05-22T12:26:51.060Z,26.87
2023-05-22T12:29:18.145Z,26.91
2023-05-22T12:31:45.613Z,26.96
2023-05-22T12:34:12.508Z,27.02
2023-05-22T12:36:40.663Z,27.01
2023-05-22T12:39:11.389Z,27.00
2023-05-22T12:41:38.699Z,27.02
2023-05-22T12:44:05.868Z,27.06
2023-05-22T12:46:33.263Z,27.08
2023-05-22T12:49:01.218Z,27.04
2023-05-22T12:51:29.301Z,26.99
2023-05-22T12:53:56.679Z,26.95
2023-05-22T12:56:23.494Z,26.91
2023-05-22T12:58:50.580Z,26.87
2023-05-22T13:01:17.341Z,26.90
2023-05-22T13:03:46.405Z,26.96
2023-05-22T13:06:12.964Z,27.07
2023-05-22T13:08:39.493Z,27.13
2023-05-22T13:11:06.052Z,27.20
2023-05-22T13:13:32.597Z,27.25
2023-05-22T13:15:59.148Z,27.25
2023-05-22T13:18:25.729Z,27.29
2023-05-22T13:20:52.260Z,27.31
2023-05-22T13:23:18.806Z,27.34
2023-05-22T13:25:45.524Z,27.35
2023-05-22T13:28:12.045Z,27.45
2023-05-22T13:30:38.742Z,27.51
2023-05-22T13:33:05.573Z,27.52
2023-05-22T13:35:32.088Z,27.56
2023-05-22T13:37:58.717Z,27.64
2023-05-22T13:40:25.416Z,27.73
2023-05-22T13:42:52.474Z,27.81
2023-05-22T13:45:19.132Z,27.81
2023-05-22T13:47:45.687Z,27.74
2023-05-22T13:50:12.246Z,27.70
2023-05-22T13:52:38.855Z,27.67
2023-05-22T13:55:05.791Z,27.68
2023-05-22T13:57:32.288Z,27.66
2023-05-22T13:59:58.793Z,27.55
2023-05-22T14:02:25.333Z,27.47
2023-05-22T14:04:52.069Z,27.46
2023-05-22T14:07:18.719Z,27.45
2023-05-22T14:09:45.427Z,27.41
2023-05-22T14:12:11.941Z,27.39
2023-05-22T14:14:38.457Z,27.35
2023-05-22T14:17:07.804Z,27.31
2023-05-22T14:19:34.704Z,27.35
2023-05-22T14:22:01.330Z,27.48
2023-05-22T14:24:27.854Z,27.59
2023-05-22T14:26:54.353Z,27.65
2023-05-22T14:29:21.120Z,27.65
2023-05-22T14:31:51.425Z,27.60
2023-05-22T14:34:18.485Z,27.52
2023-05-22T14:36:44.971Z,27.43
2023-05-22T14:39:11.530Z,27.34
2023-05-22T14:41:38.424Z,27.25
2023-05-22T14:44:05.041Z,27.16
2023-05-22T14:46:31.614Z,27.05
2023-05-22T14:48:58.207Z,26.93
2023-05-22T14:51:24.703Z,26.84
2023-05-22T14:53:51.228Z,26.73
2023-05-22T14:56:17.724Z,26.64
2023-05-22T14:58:44.300Z,26.61
2023-05-22T15:01:10.847Z,26.61
2023-05-22T15:03:37.370Z,26.64
2023-05-22T15:06:04.226Z,26.66
2023-05-22T15:08:30.716Z,26.63
2023-05-22T15:10:57.244Z,26.57
2023-05-22T15:13:23.761Z,26.49
2023-05-22T15:15:50.295Z,26.43
2023-05-22T15:18:16.951Z,26.40
2023-05-22T15:20:43.567Z,26.36
2023-05-22T15:23:10.083Z,26.33
2023-05-22T15:25:36.864Z,26.29
2023-05-22T15:28:04.356Z,26.25
2023-05-22T15:30:30.996Z,26.21
2023-05-22T15:32:57.550Z,26.17
2023-05-22T15:35:24.195Z,26.10
2023-05-22T15:37:50.724Z,26.06
2023-05-22T15:40:17.522Z,26.02
2023-05-22T15:42:44.119Z,25.98
2023-05-22T15:45:10.739Z,25.92
2023-05-22T15:47:37.296Z,25.84
2023-05-22T15:50:04.419Z,25.79
2023-05-22T15:52:30.927Z,25.75
2023-05-22T15:54:57.577Z,25.72
2023-05-22T15:57:24.226Z,25.69
2023-05-22T15:59:50.972Z,25.68
2023-05-22T16:02:18.364Z,25.67
2023-05-22T16:04:44.894Z,25.67
2023-05-22T16:07:11.831Z,25.70
2023-05-22T16:09:38.387Z,25.71
2023-05-22T16:12:05.036Z,25.73
2023-05-22T16:14:31.728Z,25.73
2023-05-22T16:16:58.228Z,25.74
2023-05-22T16:19:24.754Z,25.76
2023-05-22T16:21:51.298Z,25.77
2023-05-22T16:24:17.842Z,25.76
2023-05-22T16:26:44.376Z,25.76
2023-05-22T16:29:11.042Z,25.74
2023-05-22T16:31:37.612Z,25.71
2023-05-22T16:34:05.535Z,25.67
2023-05-22T16:36:32.092Z,25.61
2023-05-22T16:38:58.652Z,25.56
2023-05-22T16:41:25.181Z,25.49
2023-05-22T16:43:51.713Z,25.44
2023-05-22T16:46:18.640Z,25.37
2023-05-22T16:48:45.207Z,25.29
2023-05-22T16:51:11.758Z,25.19
2023-05-22T16:53:40.656Z,25.03
2023-05-22T16:56:07.488Z,24.83
2023-05-22T16:58:33.942Z,24.64
2023-05-22T17:01:00.498Z,24.48
2023-05-22T17:03:27.100Z,24.35
2023-05-22T17:05:53.863Z,24.28
2023-05-22T17:08:20.399Z,24.20
2023-05-22T17:10:46.949Z,24.10
2023-05-22T17:13:13.514Z,24.01
2023-05-22T17:15:40.192Z,23.95
2023-05-22T17:18:06.963Z,23.85
2023-05-22T17:20:33.570Z,23.76
2023-05-22T17:23:00.126Z,23.67
2023-05-22T17:25:26.691Z,23.57
2023-05-22T17:27:53.160Z,23.50
2023-05-22T17:30:19.789Z,23.43
2023-05-22T17:32:46.393Z,23.35
2023-05-22T17:35:13.187Z,23.30
2023-05-22T17:37:39.722Z,23.25
2023-05-22T17:40:06.939Z,23.20
2023-05-22T17:42:33.499Z,23.15
2023-05-22T17:45:00.025Z,23.10
2023-05-22T17:47:26.533Z,23.03
2023-05-22T17:49:53.266Z,22.92
2023-05-22T17:52:20.062Z,22.70
2023-05-22T17:54:46.688Z,22.09
2023-05-22T17:57:13.197Z,21.49
2023-05-22T17:59:40.533Z,21.14
2023-05-22T18:02:08.233Z,20.87
2023-05-22T18:04:36.046Z,20.68
2023-05-22T18:07:02.534Z,20.49
2023-05-22T18:09:29.086Z,20.32
2023-05-22T18:11:55.606Z,20.22
2023-05-22T18:14:22.128Z,20.18
2023-05-22T18:16:48.599Z,20.09
2023-05-22T18:19:15.220Z,19.94
2023-05-22T18:21:41.853Z,19.85
2023-05-22T18:24:08.638Z,19.73
2023-05-22T18:26:35.208Z,19.64
2023-05-22T18:29:01.724Z,19.53
2023-05-22T18:31:28.314Z,19.45
2023-05-22T18:33:54.960Z,19.42
2023-05-22T18:36:21.618Z,19.38
2023-05-22T18:38:48.229Z,19.35
2023-05-22T18:41:14.795Z,19.35
2023-05-22T18:43:41.373Z,19.35
2023-05-22T18:46:08.074Z,19.35
2023-05-22T18:48:34.656Z,19.36
2023-05-22T18:51:01.368Z,19.33
2023-05-22T18:53:27.931Z,19.31
2023-05-22T18:55:54.530Z,19.30
2023-05-22T18:58:21.146Z,19.28
2023-05-22T19:00:48.355Z,19.25
2023-05-22T19:03:14.985Z,19.23
2023-05-22T19:05:41.644Z,19.22
2023-05-22T19:08:08.324Z,19.22
2023-05-22T19:10:34.912Z,19.21
2023-05-22T19:13:01.458Z,19.19
2023-05-22T19:15:28.290Z,19.18
2023-05-22T19:17:54.963Z,19.17
2023-05-22T19:20:22.976Z,19.15
2023-05-22T19:22:49.590Z,19.12
2023-05-22T19:25:16.062Z,19.10
2023-05-22T19:27:42.579Z,19.06
2023-05-22T19:30:09.407Z,18.99
2023-05-22T19:32:36.013Z,18.94
2023-05-22T19:35:02.552Z,18.91
2023-05-22T19:37:29.256Z,18.86
2023-05-22T19:39:55.918Z,18.83
2023-05-22T19:42:22.496Z,18.82
2023-05-22T19:44:48.984Z,18.80
2023-05-22T19:47:15.496Z,18.79
2023-05-22T19:49:42.020Z,18.78
2023-05-22T19:52:08.542Z,18.78
2023-05-22T19:54:35.237Z,18.76
2023-05-22T19:57:02.913Z,18.73
2023-05-22T19:59:29.495Z,18.70
2023-05-22T20:01:56.103Z,18.68
2023-05-22T20:04:22.667Z,18.68
2023-05-22T20:06:49.216Z,18.68
2023-05-22T20:09:15.837Z,18.64
2023-05-22T20:11:42.469Z,18.62
2023-05-22T20:14:09.028Z,18.62
2023-05-22T20:16:35.728Z,18.61
2023-05-22T20:19:02.324Z,18.61
2023-05-22T20:21:28.866Z,18.61
2023-05-22T20:23:55.379Z,18.61
2023-05-22T20:26:21.938Z,18.60
2023-05-22T20:28:48.492Z,18.58
2023-05-22T20:31:15.158Z,18.55
2023-05-22T20:33:41.681Z,18.52
2023-05-22T20:36:08.382Z,18.49
2023-05-22T20:38:35.021Z,18.47
2023-05-22T20:41:02.749Z,18.46
2023-05-22T20:43:29.292Z,18.41
2023-05-22T20:45:57.465Z,18.37
2023-05-22T20:48:24.057Z,18.35
2023-05-22T20:50:50.785Z,18.35
2023-05-22T20:53:17.554Z,18.35
2023-05-22T20:55:44.190Z,18.34
2023-05-22T20:58:11.047Z,18.33
2023-05-22T21:00:37.615Z,18.32
2023-05-22T21:03:04.617Z,18.31
2023-05-22T21:05:31.285Z,18.25
2023-05-22T21:07:57.875Z,18.19
2023-05-22T21:10:24.409Z,18.15
2023-05-22T21:12:50.924Z,18.14
2023-05-22T21:15:17.606Z,18.14
2023-05-22T21:17:44.270Z,18.15
2023-05-22T21:20:11.304Z,18.15
2023-05-22T21:22:37.902Z,18.12
2023-05-22T21:25:04.844Z,18.04
2023-05-22T21:27:31.376Z,17.97
2023-05-22T21:29:57.921Z,17.89
2023-05-22T21:32:24.485Z,17.85
2023-05-22T21:34:51.044Z,17.84
2023-05-22T21:37:17.670Z,17.82
2023-05-22T21:39:44.231Z,17.79
2023-05-22T21:42:10.779Z,17.78
2023-05-22T21:44:37.706Z,17.79
2023-05-22T21:47:04.466Z,17.77
2023-05-22T21:49:31.004Z,17.74
2023-05-22T21:51:57.531Z,17.73
2023-05-22T21:54:24.064Z,17.70
2023-05-22T21:56:50.652Z,17.70
2023-05-22T21:59:17.220Z,17.69
2023-05-22T22:01:43.866Z,17.66
2023-05-22T22:04:10.509Z,17.61
2023-05-22T22:06:37.130Z,17.57
2023-05-22T22:09:03.810Z,17.56
2023-05-22T22:11:30.386Z,17.54
2023-05-22T22:13:56.996Z,17.53
2023-05-22T22:16:23.575Z,17.46
2023-05-22T22:18:50.280Z,17.42
2023-05-22T22:21:17.420Z,17.38
2023-05-22T22:23:43.946Z,17.36
2023-05-22T22:26:10.504Z,17.34
2023-05-22T22:28:37.112Z,17.32
2023-05-22T22:31:03.774Z,17.30
2023-05-22T22:33:30.270Z,17.29
2023-05-22T22:35:56.802Z,17.28
2023-05-22T22:38:23.310Z,17.27
2023-05-22T22:40:49.806Z,17.25
2023-05-22T22:43:16.419Z,17.21
2023-05-22T22:45:43.103Z,17.17
2023-05-22T22:48:09.837Z,17.14
2023-05-22T22:50:36.468Z,17.12
2023-05-22T22:53:03.006Z,17.10
2023-05-22T22:55:29.654Z,17.07
2023-05-22T22:57:56.334Z,17.04
2023-05-22T23:00:22.860Z,17.00
2023-05-22T23:02:49.509Z,16.97
2023-05-22T23:05:16.063Z,16.95
2023-05-22T23:07:42.832Z,16.93
2023-05-22T23:10:09.737Z,16.91
2023-05-22T23:12:36.365Z,16.88
2023-05-22T23:15:03.467Z,16.85
2023-05-22T23:17:30.035Z,16.84
2023-05-22T23:19:56.699Z,16.81
2023-05-22T23:22:23.455Z,16.75
2023-05-22T23:24:50.093Z,16.68
2023-05-22T23:27:16.606Z,16.64
2023-05-22T23:29:43.130Z,16.60
2023-05-22T23:32:10.470Z,16.59
2023-05-22T23:34:37.897Z,16.59
2023-05-22T23:37:04.662Z,16.60
2023-05-22T23:39:31.193Z,16.59
2023-05-22T23:41:58.207Z,16.59
2023-05-22T23:44:24.709Z,16.60
2023-05-22T23:46:51.397Z,16.60
2023-05-22T23:49:17.994Z,16.58
2023-05-22T23:51:44.517Z,16.57
2023-05-22T23:54:11.050Z,16.56
2023-05-22T23:56:37.685Z,16.54
2023-05-22T23:59:04.535Z,16.53
